Time;durP1;ratioP1;P1;durP2;ratioP2;P2;SDS_P1;SDS_P2;PMS_P1;PMS_P2;Temp;Humidity;BMP_temperature;BMP_pressure;BME280_temperature;BME280_humidity;BME280_pressure;Samples;Min_cycle;Max_cycle;Signal;HPM_P1;HPM_P2
2022/02/26 00:02:16;;;;;;;7.40;3.50;;;6.40;99.90;;;;;;5071632;28;20208;-62
2022/02/26 00:04:44;;;;;;;8.57;3.00;;;6.50;99.90;;;;;;5071250;28;20673;-63
2022/02/26 00:07:11;;;;;;;6.57;2.90;;;6.60;99.90;;;;;;5071443;28;20197;-63
2022/02/26 00:09:37;;;;;;;5.63;3.20;;;6.60;99.90;;;;;;5071113;28;20262;-63
2022/02/26 00:12:05;;;;;;;6.67;2.60;;;6.70;99.90;;;;;;5074772;28;20635;-62
2022/02/26 00:14:31;;;;;;;8.37;3.00;;;6.80;99.90;;;;;;5075123;28;20205;-62
2022/02/26 00:16:58;;;;;;;6.70;3.40;;;6.80;99.90;;;;;;5074984;28;20224;-62
2022/02/26 00:19:25;;;;;;;6.27;2.93;;;6.80;99.90;;;;;;5074975;28;20207;-63
2022/02/26 00:21:53;;;;;;;7.17;2.83;;;6.80;99.90;;;;;;5074815;28;20687;-63
2022/02/26 00:24:20;;;;;;;6.47;2.77;;;6.80;99.90;;;;;;5074721;28;20208;-62
2022/02/26 00:26:47;;;;;;;8.60;3.33;;;6.80;99.90;;;;;;5074794;28;20236;-62
2022/02/26 00:29:13;;;;;;;5.70;2.83;;;6.80;99.90;;;;;;5074593;28;20205;-64
2022/02/26 00:31:40;;;;;;;6.93;2.93;;;6.90;99.90;;;;;;5074732;28;20726;-63
2022/02/26 00:34:07;;;;;;;7.93;3.00;;;6.90;99.90;;;;;;5074530;28;20623;-62
2022/02/26 00:36:34;;;;;;;6.13;2.60;;;6.90;99.90;;;;;;5074524;28;20228;-63
2022/02/26 00:39:02;;;;;;;10.37;3.43;;;6.90;99.90;;;;;;5074220;28;20255;-63
2022/02/26 00:41:28;;;;;;;9.53;2.97;;;6.80;99.90;;;;;;5074664;28;20585;-64
2022/02/26 00:43:56;;;;;;;6.20;3.10;;;6.80;99.90;;;;;;5074535;28;20209;-64
2022/02/26 00:46:22;;;;;;;7.00;3.17;;;6.90;99.90;;;;;;5074301;28;20220;-63
2022/02/26 00:51:33;;;;;;;7.57;3.30;;;7.00;99.90;;;;;;5074899;28;20301;-64
2022/02/26 00:54:01;;;;;;;9.23;3.33;;;7.00;99.90;;;;;;5074417;28;20212;-63
2022/02/26 00:56:28;;;;;;;5.97;3.27;;;6.90;99.90;;;;;;5074276;28;20711;-62
2022/02/26 00:58:56;;;;;;;7.17;2.60;;;7.00;99.90;;;;;;5073975;28;20208;-63
2022/02/26 01:01:23;;;;;;;5.43;2.80;;;7.00;99.90;;;;;;5074121;28;20263;-63
2022/02/26 01:03:49;;;;;;;5.13;2.20;;;7.00;99.90;;;;;;5074028;28;20209;-63
2022/02/26 01:06:16;;;;;;;5.53;2.43;;;7.00;99.90;;;;;;5074195;28;20229;-62
2022/02/26 01:08:43;;;;;;;6.77;3.07;;;6.90;99.90;;;;;;5073852;28;20212;-64
2022/02/26 01:11:11;;;;;;;5.53;2.60;;;6.80;99.90;;;;;;5073983;28;20204;-62
2022/02/26 01:13:37;;;;;;;6.20;3.00;;;6.80;99.90;;;;;;5074020;28;20205;-62
2022/02/26 01:16:05;;;;;;;4.70;2.60;;;6.80;99.90;;;;;;5073644;28;20229;-62
2022/02/26 01:18:31;;;;;;;5.93;2.93;;;6.80;99.90;;;;;;5073433;28;20209;-62
2022/02/26 01:20:58;;;;;;;5.00;2.60;;;6.80;99.90;;;;;;5073701;28;20209;-63
2022/02/26 01:23:25;;;;;;;5.60;2.40;;;6.80;99.90;;;;;;5073920;28;20231;-62
2022/02/26 01:25:51;;;;;;;7.87;2.83;;;6.80;99.90;;;;;;5073598;28;20270;-63
2022/02/26 01:28:19;;;;;;;6.57;2.50;;;6.80;99.90;;;;;;5073607;28;20213;-62
2022/02/26 01:30:46;;;;;;;7.87;2.83;;;6.80;99.90;;;;;;5073260;28;20201;-63
2022/02/26 01:33:13;;;;;;;5.33;2.70;;;6.50;99.90;;;;;;5073758;28;20205;-62
2022/02/26 01:35:40;;;;;;;6.17;2.90;;;6.40;99.90;;;;;;5073400;28;20220;-63
2022/02/26 01:38:07;;;;;;;5.50;2.77;;;6.30;99.90;;;;;;5073494;28;20284;-63
2022/02/26 01:40:34;;;;;;;5.73;3.03;;;6.10;99.90;;;;;;5073240;28;20204;-63
2022/02/26 01:43:00;;;;;;;6.93;2.83;;;6.00;99.90;;;;;;5073467;28;20205;-63
2022/02/26 01:45:28;;;;;;;10.13;3.00;;;5.90;99.90;;;;;;5073161;28;20225;-63
2022/02/26 01:47:55;;;;;;;5.37;2.60;;;5.80;99.90;;;;;;5073573;28;20205;-63
2022/02/26 01:50:22;;;;;;;5.07;2.73;;;5.80;99.90;;;;;;5073151;28;20259;-63
2022/02/26 01:52:49;;;;;;;5.83;2.73;;;5.60;99.90;;;;;;5073176;28;20757;-63
2022/02/26 01:55:16;;;;;;;7.90;3.10;;;5.40;99.90;;;;;;5073230;28;20236;-63
2022/02/26 01:57:44;;;;;;;6.07;2.60;;;5.30;99.90;;;;;;5073181;28;20256;-62
2022/02/26 02:00:12;;;;;;;6.03;2.60;;;5.40;99.90;;;;;;5072917;28;20201;-62
2022/02/26 02:02:40;;;;;;;6.83;2.90;;;5.20;99.90;;;;;;5073741;28;20642;-62
2022/02/26 02:05:07;;;;;;;6.03;2.87;;;5.20;99.90;;;;;;5073187;28;20820;-62
2022/02/26 02:07:34;;;;;;;5.43;3.13;;;5.10;99.90;;;;;;5073308;28;20233;-62
2022/02/26 02:10:01;;;;;;;7.10;4.30;;;5.10;99.90;;;;;;5073175;28;20204;-62
2022/02/26 02:12:29;;;;;;;6.60;3.03;;;5.00;99.90;;;;;;5074966;28;20205;-62
2022/02/26 02:14:56;;;;;;;7.83;3.10;;;5.00;99.90;;;;;;5074350;28;20758;-63
2022/02/26 02:17:23;;;;;;;6.77;3.93;;;5.00;99.90;;;;;;5074898;28;20605;-62
2022/02/26 02:19:51;;;;;;;9.07;3.00;;;5.00;99.90;;;;;;5073785;28;20208;-62
2022/02/26 02:22:20;;;;;;;6.50;3.67;;;5.00;99.90;;;;;;5074806;28;20205;-63
2022/02/26 02:24:47;;;;;;;8.57;3.23;;;5.00;99.90;;;;;;5072932;28;20216;-63
2022/02/26 02:27:16;;;;;;;6.97;3.40;;;4.80;99.90;;;;;;5073445;28;20201;-63
2022/02/26 02:29:43;;;;;;;10.23;3.80;;;4.80;99.90;;;;;;5075975;28;20734;-63
2022/02/26 02:32:10;;;;;;;7.60;3.30;;;4.70;99.90;;;;;;5075428;28;20227;-63
2022/02/26 02:34:37;;;;;;;6.70;3.43;;;4.70;99.90;;;;;;5073203;28;20664;-62
2022/02/26 02:37:04;;;;;;;7.03;3.00;;;4.80;99.90;;;;;;5073195;28;20228;-63
2022/02/26 02:39:32;;;;;;;8.53;3.40;;;5.00;99.90;;;;;;5074708;28;20572;-63
2022/02/26 02:41:59;;;;;;;5.53;3.23;;;5.10;99.90;;;;;;5074208;28;20204;-65
2022/02/26 02:44:26;;;;;;;6.53;3.33;;;5.20;99.90;;;;;;5073820;28;20211;-62
2022/02/26 02:46:53;;;;;;;7.93;4.03;;;5.30;99.90;;;;;;5073274;28;20715;-62
2022/02/26 02:49:19;;;;;;;5.57;3.50;;;5.30;99.90;;;;;;5075010;28;20217;-61
2022/02/26 02:51:46;;;;;;;4.97;3.13;;;5.20;99.90;;;;;;5075463;28;20209;-62
2022/02/26 02:54:13;;;;;;;5.77;3.20;;;5.20;99.90;;;;;;5073978;28;20209;-62
2022/02/26 02:56:41;;;;;;;5.97;3.33;;;5.20;99.90;;;;;;5073497;28;20232;-62
2022/02/26 02:59:08;;;;;;;8.10;3.07;;;5.40;99.90;;;;;;5073337;28;20205;-63
2022/02/26 03:01:34;;;;;;;6.90;3.47;;;5.50;99.90;;;;;;5073034;28;20247;-63
2022/02/26 03:04:01;;;;;;;8.37;3.43;;;5.60;99.90;;;;;;5072509;28;20205;-62
2022/02/26 03:06:28;;;;;;;7.13;3.13;;;5.70;99.90;;;;;;5072261;28;20224;-62
2022/02/26 03:08:55;;;;;;;6.07;3.27;;;5.70;99.90;;;;;;5072468;28;20213;-62
2022/02/26 03:11:22;;;;;;;6.73;3.23;;;5.70;99.90;;;;;;5073990;28;20287;-62
2022/02/26 03:13:50;;;;;;;5.47;3.00;;;5.80;99.90;;;;;;5074456;28;20205;-62
2022/02/26 03:16:16;;;;;;;6.87;3.40;;;5.70;99.90;;;;;;5080086;22;20229;-64
2022/02/26 03:18:44;;;;;;;6.07;3.40;;;5.70;99.90;;;;;;5064920;28;20212;-65
2022/02/26 03:21:11;;;;;;;4.63;3.00;;;5.70;99.90;;;;;;5073715;28;20201;-65
2022/02/26 03:23:38;;;;;;;5.40;3.30;;;5.70;99.90;;;;;;5073159;28;20212;-65
2022/02/26 03:26:05;;;;;;;9.57;3.67;;;5.70;99.90;;;;;;5072900;28;20225;-65
2022/02/26 03:28:31;;;;;;;8.30;3.40;;;5.70;99.90;;;;;;5073461;28;20215;-65
2022/02/26 03:30:59;;;;;;;7.43;3.10;;;5.60;99.90;;;;;;5073417;28;20201;-65
2022/02/26 03:33:27;;;;;;;6.87;4.20;;;5.60;99.90;;;;;;5073117;28;20215;-65
2022/02/26 03:35:54;;;;;;;5.83;3.10;;;5.60;99.90;;;;;;5072866;28;20727;-64
2022/02/26 03:38:20;;;;;;;6.17;3.53;;;5.60;99.90;;;;;;5073568;28;20282;-65
2022/02/26 03:40:47;;;;;;;8.37;3.63;;;5.60;99.90;;;;;;5072946;28;20213;-64
2022/02/26 03:43:14;;;;;;;10.13;3.87;;;5.60;99.90;;;;;;5072916;28;20212;-65
2022/02/26 03:45:40;;;;;;;6.93;3.57;;;5.60;99.90;;;;;;5075678;28;20224;-65
2022/02/26 03:48:08;;;;;;;11.27;4.13;;;5.60;99.90;;;;;;5076652;28;20798;-65
2022/02/26 03:50:35;;;;;;;8.90;3.73;;;5.60;99.90;;;;;;5076148;28;20205;-65
2022/02/26 03:53:02;;;;;;;6.03;3.60;;;5.70;99.90;;;;;;5076185;28;20201;-65
2022/02/26 03:55:29;;;;;;;10.27;3.90;;;5.70;99.90;;;;;;5076031;28;20232;-65
2022/02/26 03:57:55;;;;;;;5.90;3.80;;;5.70;99.90;;;;;;5076132;28;20252;-65
2022/02/26 04:00:22;;;;;;;7.17;4.27;;;5.70;99.90;;;;;;5075926;28;20217;-65
2022/02/26 04:02:49;;;;;;;8.13;4.07;;;5.70;99.90;;;;;;5076357;28;20200;-65
2022/02/26 04:05:17;;;;;;;9.93;3.97;;;5.70;99.90;;;;;;5076064;28;20236;-65
2022/02/26 04:07:44;;;;;;;7.63;3.90;;;5.60;99.90;;;;;;5076040;28;20204;-65
2022/02/26 04:10:11;;;;;;;9.77;4.20;;;5.50;99.90;;;;;;5075842;28;20212;-65
2022/02/26 04:12:38;;;;;;;9.63;4.10;;;5.40;99.90;;;;;;5075961;28;20664;-65
2022/02/26 04:15:06;;;;;;;7.30;4.13;;;5.40;99.90;;;;;;5076977;28;20204;-65
2022/02/26 04:17:33;;;;;;;8.60;3.97;;;5.40;99.90;;;;;;5076884;28;20700;-65
2022/02/26 04:20:00;;;;;;;7.93;4.20;;;5.30;99.90;;;;;;5076560;28;20208;-65
2022/02/26 04:22:28;;;;;;;8.93;4.27;;;5.20;99.90;;;;;;5076062;28;20695;-65
2022/02/26 04:24:55;;;;;;;7.20;4.13;;;5.10;99.90;;;;;;5075795;28;20401;-66
2022/02/26 04:27:22;;;;;;;8.50;4.80;;;5.10;99.90;;;;;;5075504;28;20673;-64
2022/02/26 04:29:48;;;;;;;9.60;4.50;;;5.10;99.90;;;;;;5075652;28;20635;-65
2022/02/26 04:32:15;;;;;;;7.67;4.70;;;5.00;99.90;;;;;;5076064;28;20230;-64
2022/02/26 04:34:42;;;;;;;9.60;4.30;;;5.00;99.90;;;;;;5076389;28;20258;-65
2022/02/26 04:37:08;;;;;;;9.17;4.57;;;5.10;99.90;;;;;;5075435;28;20232;-65
2022/02/26 04:39:36;;;;;;;9.20;4.83;;;5.20;99.90;;;;;;5076340;28;20210;-65
2022/02/26 04:42:04;;;;;;;7.20;4.60;;;5.30;99.90;;;;;;5075758;28;20197;-65
2022/02/26 04:44:30;;;;;;;7.10;4.83;;;5.30;99.90;;;;;;5076051;28;20215;-65
2022/02/26 04:46:57;;;;;;;10.53;4.83;;;5.40;99.90;;;;;;5075840;28;20220;-65
2022/02/26 04:49:24;;;;;;;6.47;4.27;;;5.50;99.90;;;;;;5075483;28;20205;-65
2022/02/26 04:51:51;;;;;;;6.90;4.20;;;5.50;99.90;;;;;;5075251;28;20209;-65
2022/02/26 04:54:18;;;;;;;9.40;4.90;;;5.50;99.90;;;;;;5075610;28;20611;-65
2022/02/26 04:56:46;;;;;;;6.43;4.20;;;5.60;99.90;;;;;;5074785;28;20237;-66
2022/02/26 04:59:13;;;;;;;7.73;4.30;;;5.60;99.90;;;;;;5074846;28;20199;-65
2022/02/26 05:01:39;;;;;;;8.53;4.87;;;5.70;99.90;;;;;;5075734;28;20205;-65
2022/02/26 05:04:06;;;;;;;7.37;4.50;;;5.70;99.90;;;;;;5075917;28;20205;-65
2022/02/26 05:06:33;;;;;;;9.63;5.23;;;5.70;99.90;;;;;;5075554;28;20232;-66
2022/02/26 05:09:00;;;;;;;10.80;6.50;;;5.70;99.90;;;;;;5075553;28;20205;-66
2022/02/26 05:11:26;;;;;;;9.30;4.70;;;5.70;99.90;;;;;;5075141;28;20217;-65
2022/02/26 05:13:54;;;;;;;9.37;5.13;;;5.70;99.90;;;;;;5075010;28;20300;-65
2022/02/26 05:16:21;;;;;;;7.73;4.97;;;5.70;99.90;;;;;;5074352;28;20233;-65
2022/02/26 05:18:48;;;;;;;7.27;4.73;;;5.70;99.90;;;;;;5074613;28;20224;-66
2022/02/26 05:21:14;;;;;;;7.43;4.90;;;5.70;99.90;;;;;;5074091;28;20281;-66
2022/02/26 05:23:42;;;;;;;10.77;4.93;;;5.80;99.90;;;;;;5074480;28;20208;-66
2022/02/26 05:26:09;;;;;;;10.07;5.43;;;5.80;99.90;;;;;;5074449;28;20248;-66
2022/02/26 05:28:36;;;;;;;7.93;4.57;;;5.80;99.90;;;;;;5074896;28;20262;-66
2022/02/26 05:31:04;;;;;;;7.80;4.83;;;5.80;99.90;;;;;;5074186;28;20213;-66
2022/02/26 05:33:31;;;;;;;15.87;7.20;;;5.80;99.90;;;;;;5074140;28;20219;-66
2022/02/26 05:35:58;;;;;;;9.20;5.20;;;5.90;99.90;;;;;;5074153;28;20232;-66
2022/02/26 05:38:24;;;;;;;9.13;5.87;;;5.90;99.90;;;;;;5074015;28;20773;-66
2022/02/26 05:40:51;;;;;;;9.43;5.10;;;6.00;99.90;;;;;;5074189;28;20200;-66
2022/02/26 05:43:18;;;;;;;8.20;5.20;;;5.90;99.90;;;;;;5074021;28;20280;-65
2022/02/26 05:45:45;;;;;;;10.90;7.33;;;5.90;99.90;;;;;;5074170;28;20233;-65
2022/02/26 05:48:13;;;;;;;11.83;6.10;;;5.80;99.90;;;;;;5073988;28;20585;-65
2022/02/26 05:50:40;;;;;;;10.27;6.23;;;5.80;99.90;;;;;;5073646;28;20212;-66
2022/02/26 05:53:07;;;;;;;12.93;5.50;;;5.80;99.90;;;;;;5073826;28;20219;-64
2022/02/26 05:55:34;;;;;;;9.70;6.00;;;5.80;99.90;;;;;;5074367;28;20229;-64
2022/02/26 05:58:01;;;;;;;10.50;5.50;;;5.80;99.90;;;;;;5074905;28;20224;-65
2022/02/26 06:00:27;;;;;;;9.53;5.97;;;5.70;99.90;;;;;;5074465;28;20204;-65
2022/02/26 06:02:54;;;;;;;13.73;8.27;;;5.70;99.90;;;;;;5074508;28;20200;-65
2022/02/26 06:05:22;;;;;;;10.00;5.73;;;5.60;99.90;;;;;;5073999;28;20225;-65
2022/02/26 06:07:49;;;;;;;9.57;5.53;;;5.70;99.90;;;;;;5072700;28;20205;-65
2022/02/26 06:10:16;;;;;;;10.87;5.70;;;5.90;99.90;;;;;;5073132;28;20295;-65
2022/02/26 06:12:43;;;;;;;9.97;5.83;;;5.90;99.90;;;;;;5073719;28;20216;-65
2022/02/26 06:15:10;;;;;;;15.77;8.57;;;6.00;99.90;;;;;;5073542;28;20283;-66
2022/02/26 06:17:37;;;;;;;16.80;9.10;;;6.00;99.90;;;;;;5073672;28;20708;-65
2022/02/26 06:20:04;;;;;;;10.43;5.83;;;6.00;99.90;;;;;;5073601;28;20211;-65
2022/02/26 06:22:33;;;;;;;11.93;5.77;;;6.00;99.90;;;;;;5072979;28;20213;-65
2022/02/26 06:25:00;;;;;;;13.40;6.00;;;6.10;99.90;;;;;;5073666;28;20208;-65
2022/02/26 06:27:26;;;;;;;9.23;6.10;;;6.20;99.90;;;;;;5073596;28;20204;-65
2022/02/26 06:29:53;;;;;;;11.70;6.53;;;6.30;99.90;;;;;;5073241;28;20205;-62
2022/02/26 06:32:20;;;;;;;11.27;7.40;;;6.30;99.90;;;;;;5072468;28;20722;-61
2022/02/26 06:34:47;;;;;;;11.60;6.37;;;6.30;99.90;;;;;;5072895;28;20231;-61
2022/02/26 06:37:13;;;;;;;11.67;7.17;;;6.30;99.90;;;;;;5072343;28;20603;-61
2022/02/26 06:39:42;;;;;;;12.30;6.40;;;6.40;99.90;;;;;;5072241;28;20212;-61
2022/02/26 06:42:08;;;;;;;12.13;7.90;;;6.50;99.90;;;;;;5072346;28;20618;-62
2022/02/26 06:44:35;;;;;;;12.50;6.70;;;6.60;99.90;;;;;;5072471;28;20212;-60
2022/02/26 06:47:02;;;;;;;12.53;5.90;;;6.50;99.90;;;;;;5072339;28;20704;-60
2022/02/26 06:49:29;;;;;;;14.27;6.30;;;6.50;99.90;;;;;;5072337;28;20262;-60
2022/02/26 06:51:55;;;;;;;10.03;6.63;;;6.50;99.90;;;;;;5072176;28;20673;-60
2022/02/26 06:54:23;;;;;;;11.27;6.30;;;6.30;99.90;;;;;;5072704;28;20204;-61
2022/02/26 06:56:52;;;;;;;12.80;6.53;;;6.30;99.90;;;;;;5072908;28;20297;-60
2022/02/26 06:59:19;;;;;;;10.73;5.90;;;6.30;99.90;;;;;;5072433;28;20278;-61
2022/02/26 07:01:46;;;;;;;10.23;6.57;;;6.40;99.90;;;;;;5073646;28;20209;-64
2022/02/26 07:04:13;;;;;;;14.27;6.23;;;6.60;99.90;;;;;;5074692;28;20204;-64
2022/02/26 07:06:43;;;;;;;17.83;8.87;;;6.60;99.90;;;;;;5074676;28;20635;-64
2022/02/26 07:09:10;;;;;;;13.20;7.20;;;6.60;99.90;;;;;;5073950;28;20605;-65
2022/02/26 07:11:37;;;;;;;10.93;6.77;;;6.80;99.90;;;;;;5073829;28;20236;-64
2022/02/26 07:14:05;;;;;;;13.37;7.13;;;6.80;99.90;;;;;;5073310;28;20258;-63
2022/02/26 07:16:32;;;;;;;11.63;6.77;;;6.90;99.90;;;;;;5073213;28;20720;-65
2022/02/26 07:19:00;;;;;;;11.07;6.17;;;7.00;99.90;;;;;;5073408;28;20224;-63
2022/02/26 07:21:26;;;;;;;10.60;6.63;;;7.10;99.90;;;;;;5080185;28;20223;-66
2022/02/26 07:23:55;;;;;;;12.17;6.57;;;7.20;99.90;;;;;;5079609;28;20209;-64
2022/02/26 07:26:22;;;;;;;9.90;6.63;;;7.30;99.90;;;;;;5078464;28;20228;-64
2022/02/26 07:28:49;;;;;;;11.57;6.40;;;7.30;99.90;;;;;;5078401;28;20664;-63
2022/02/26 07:31:17;;;;;;;10.13;6.63;;;7.40;99.90;;;;;;5078352;28;20231;-64
2022/02/26 07:33:44;;;;;;;12.27;7.13;;;7.40;99.90;;;;;;5078621;28;20277;-64
2022/02/26 07:36:10;;;;;;;10.40;7.27;;;7.50;99.90;;;;;;5078477;28;20274;-64
2022/02/26 07:38:38;;;;;;;13.87;9.37;;;7.50;99.90;;;;;;5078479;28;20236;-64
2022/02/26 07:41:06;;;;;;;10.77;6.90;;;7.50;99.90;;;;;;5078201;28;20211;-64
2022/02/26 07:43:33;;;;;;;14.13;8.10;;;7.50;99.90;;;;;;5078617;28;20240;-64
2022/02/26 07:46:00;;;;;;;15.13;7.90;;;7.60;99.90;;;;;;5078056;28;20259;-64
2022/02/26 07:48:28;;;;;;;13.80;7.50;;;7.70;99.90;;;;;;5078417;28;20234;-64
2022/02/26 07:50:55;;;;;;;9.57;7.20;;;7.80;99.90;;;;;;5078099;28;20699;-64
2022/02/26 07:53:22;;;;;;;13.37;7.30;;;7.80;99.90;;;;;;5078322;28;20209;-64
2022/02/26 07:55:48;;;;;;;12.30;7.70;;;8.00;99.90;;;;;;5078252;28;20315;-64
2022/02/26 07:58:15;;;;;;;14.37;6.80;;;8.20;99.90;;;;;;5078076;28;20231;-64
2022/02/26 08:00:43;;;;;;;11.73;6.47;;;8.30;99.90;;;;;;5078351;28;20200;-64
2022/02/26 08:03:09;;;;;;;11.30;7.40;;;8.50;99.90;;;;;;5078944;28;20216;-64
2022/02/26 08:05:37;;;;;;;11.33;6.77;;;8.60;99.90;;;;;;5078856;28;20228;-65
2022/02/26 08:08:05;;;;;;;13.10;6.77;;;8.50;99.90;;;;;;5078770;28;20196;-64
2022/02/26 08:10:32;;;;;;;11.80;7.17;;;8.60;99.90;;;;;;5078303;28;20624;-64
2022/02/26 08:12:59;;;;;;;15.47;7.37;;;8.40;99.90;;;;;;5078748;28;20714;-64
2022/02/26 08:15:27;;;;;;;11.93;6.53;;;8.40;99.90;;;;;;5078396;28;20266;-64
2022/02/26 08:17:54;;;;;;;11.57;7.20;;;8.50;99.90;;;;;;5078355;28;20228;-64
2022/02/26 08:20:23;;;;;;;12.83;6.97;;;8.60;99.90;;;;;;5078690;28;20208;-64
2022/02/26 08:22:52;;;;;;;11.80;6.27;;;8.90;99.90;;;;;;5079100;28;20228;-65
2022/02/26 08:25:18;;;;;;;12.73;7.30;;;9.20;99.90;;;;;;5078573;28;20275;-64
2022/02/26 08:27:45;;;;;;;11.40;6.37;;;9.40;99.90;;;;;;5078380;28;20216;-64
2022/02/26 08:30:14;;;;;;;12.60;6.30;;;9.50;99.90;;;;;;5078790;28;20590;-64
2022/02/26 08:32:40;;;;;;;13.60;6.97;;;9.50;99.90;;;;;;5075020;28;20220;-64
2022/02/26 08:35:09;;;;;;;10.13;7.20;;;9.30;99.90;;;;;;5075945;28;20627;-63
2022/02/26 08:37:36;;;;;;;14.03;7.10;;;9.40;99.90;;;;;;5075921;28;20233;-64
2022/02/26 08:40:06;;;;;;;11.97;6.63;;;9.40;99.90;;;;;;5076843;28;20209;-63
2022/02/26 08:42:33;;;;;;;15.17;6.67;;;9.60;99.90;;;;;;5076507;28;20209;-64
2022/02/26 08:45:02;;;;;;;12.80;6.60;;;9.80;99.90;;;;;;5076789;28;20201;-64
2022/02/26 08:47:29;;;;;;;15.90;8.87;;;9.90;99.90;;;;;;5075386;28;20227;-64
2022/02/26 08:49:56;;;;;;;14.33;7.60;;;10.10;99.90;;;;;;5075065;28;20204;-64
2022/02/26 08:52:23;;;;;;;20.70;12.67;;;10.10;99.90;;;;;;5074994;28;20250;-63
2022/02/26 08:54:50;;;;;;;12.53;7.77;;;10.30;99.90;;;;;;5074537;28;20270;-63
2022/02/26 08:57:18;;;;;;;12.60;6.80;;;10.50;99.90;;;;;;5074529;28;20743;-64
2022/02/26 08:59:45;;;;;;;11.90;6.40;;;10.80;99.90;;;;;;5074758;28;20290;-64
2022/02/26 09:02:12;;;;;;;11.90;7.17;;;11.00;99.90;;;;;;5075160;28;20291;-64
2022/02/26 09:04:39;;;;;;;12.37;6.80;;;11.10;99.90;;;;;;5074998;28;20588;-64
2022/02/26 09:07:06;;;;;;;12.03;6.00;;;10.60;99.90;;;;;;5074454;28;20228;-64
2022/02/26 09:09:33;;;;;;;12.83;6.40;;;10.50;99.90;;;;;;5074900;28;20240;-64
2022/02/26 09:12:00;;;;;;;10.33;5.83;;;10.50;99.90;;;;;;5075194;28;20204;-64
2022/02/26 09:14:28;;;;;;;12.43;6.30;;;10.10;99.90;;;;;;5075964;28;20209;-65
2022/02/26 09:16:55;;;;;;;13.77;5.80;;;9.80;99.90;;;;;;5114622;22;20223;-62
2022/02/26 09:19:22;;;;;;;12.47;6.40;;;9.70;99.90;;;;;;5106821;28;20247;-61
2022/02/26 09:21:49;;;;;;;10.63;5.80;;;9.40;99.90;;;;;;5114543;28;20697;-61
2022/02/26 09:24:16;;;;;;;9.13;5.90;;;8.80;99.90;;;;;;5114907;28;20659;-61
2022/02/26 09:26:43;;;;;;;10.63;5.73;;;8.50;99.90;;;;;;5114556;28;20227;-61
2022/02/26 09:29:09;;;;;;;11.27;5.83;;;8.60;99.90;;;;;;5114649;28;20301;-61
2022/02/26 09:31:40;;;;;;;15.83;6.17;;;8.90;99.90;;;;;;5114276;28;20208;-61
2022/02/26 09:34:07;;;;;;;15.97;6.87;;;9.20;99.90;;;;;;5114355;28;20203;-62
2022/02/26 09:36:33;;;;;;;11.77;5.33;;;9.40;99.90;;;;;;5114459;28;20223;-61
2022/02/26 09:39:00;;;;;;;8.87;5.07;;;9.60;99.90;;;;;;5114346;28;20273;-61
2022/02/26 09:41:28;;;;;;;10.50;4.77;;;9.70;99.90;;;;;;5114168;28;20206;-61
2022/02/26 09:43:56;;;;;;;10.30;4.40;;;9.40;99.90;;;;;;5114221;28;20285;-61
2022/02/26 09:46:22;;;;;;;9.80;4.87;;;9.10;99.90;;;;;;5114132;28;20245;-61
2022/02/26 09:48:50;;;;;;;13.03;4.63;;;8.50;99.90;;;;;;5113844;28;20207;-60
2022/02/26 09:51:17;;;;;;;9.23;4.77;;;8.50;99.90;;;;;;5114163;28;20218;-61
2022/02/26 09:53:46;;;;;;;12.30;5.03;;;8.70;99.90;;;;;;5114491;28;20207;-61
2022/02/26 09:56:12;;;;;;;7.80;3.47;;;9.10;99.90;;;;;;5114344;28;20590;-60
2022/02/26 09:58:40;;;;;;;8.37;3.43;;;9.20;99.30;;;;;;5114039;28;20246;-60
2022/02/26 10:01:07;;;;;;;10.43;3.83;;;9.30;98.60;;;;;;5113765;28;20556;-60
2022/02/26 10:03:35;;;;;;;9.60;3.10;;;9.20;98.70;;;;;;5113936;28;20208;-60
2022/02/26 10:06:09;;;;;;;6.53;2.20;;;9.00;96.80;;;;;;5114106;28;20228;-61
2022/02/26 10:08:37;;;;;;;10.53;2.10;;;8.80;94.80;;;;;;5113881;28;20708;-61
2022/02/26 10:11:05;;;;;;;4.70;1.77;;;8.50;93.10;;;;;;5113508;28;20213;-61
2022/02/26 10:13:38;;;;;;;6.27;2.33;;;8.40;92.70;;;;;;5113525;28;20229;-62
2022/02/26 10:16:05;;;;;;;6.47;2.20;;;8.60;93.00;;;;;;5114022;28;20642;-62
2022/02/26 10:18:33;;;;;;;6.03;2.10;;;8.90;93.50;;;;;;5114217;28;20226;-62
2022/02/26 10:21:02;;;;;;;4.63;1.70;;;9.30;93.30;;;;;;5113521;28;20207;-61
2022/02/26 10:23:30;;;;;;;6.83;2.07;;;9.60;91.80;;;;;;5113888;28;20666;-61
2022/02/26 10:26:08;;;;;;;6.23;2.03;;;9.70;91.60;;;;;;5113763;28;20223;-61
2022/02/26 10:28:40;;;;;;;16.57;8.20;;;10.00;90.50;;;;;;5113853;28;20643;-61
2022/02/26 10:31:08;;;;;;;8.50;2.90;;;10.40;90.00;;;;;;5113502;28;20203;-61
2022/02/26 10:33:35;;;;;;;5.90;1.80;;;10.80;89.00;;;;;;5113523;28;20713;-62
2022/02/26 10:36:08;;;;;;;7.50;2.20;;;11.10;86.80;;;;;;5113787;28;20255;-62
2022/02/26 10:38:37;;;;;;;6.47;2.20;;;11.20;87.30;;;;;;5113414;28;20225;-61
2022/02/26 10:41:06;;;;;;;5.77;1.93;;;11.40;86.40;;;;;;5113270;28;20325;-61
2022/02/26 10:43:42;;;;;;;7.73;2.10;;;11.40;85.30;;;;;;5113580;28;20295;-62
2022/02/26 10:46:20;;;;;;;5.83;2.00;;;11.30;85.20;;;;;;5113536;28;20223;-61
2022/02/26 10:48:47;;;;;;;7.63;3.27;;;11.40;85.00;;;;;;5113153;28;20203;-62
2022/02/26 10:51:15;;;;;;;4.80;2.00;;;11.50;85.40;;;;;;5112444;28;20264;-61
2022/02/26 10:53:44;;;;;;;6.47;2.47;;;11.80;83.90;;;;;;5113731;28;20237;-62
2022/02/26 10:56:12;;;;;;;6.30;2.40;;;11.80;83.60;;;;;;5112343;28;20311;-61
2022/02/26 10:58:40;;;;;;;8.10;2.13;;;11.30;84.60;;;;;;5112685;28;20203;-61
2022/02/26 11:01:08;;;;;;;7.23;2.40;;;10.90;85.50;;;;;;5112703;28;20199;-61
2022/02/26 11:03:36;;;;;;;8.93;2.07;;;10.80;86.50;;;;;;5113218;28;20294;-60
2022/02/26 11:06:04;;;;;;;6.20;2.17;;;10.60;87.80;;;;;;5112344;28;20235;-60
2022/02/26 11:08:32;;;;;;;6.77;2.37;;;10.10;88.20;;;;;;5112944;28;20207;-61
2022/02/26 11:11:02;;;;;;;5.90;2.20;;;9.30;90.30;;;;;;5112674;28;20654;-61
2022/02/26 11:13:30;;;;;;;4.57;2.00;;;8.90;91.20;;;;;;5112987;28;20211;-61
2022/02/26 11:15:58;;;;;;;7.30;2.40;;;8.40;92.30;;;;;;5113049;28;20289;-61
2022/02/26 11:18:31;;;;;;;11.63;2.57;;;8.20;93.10;;;;;;5112815;28;20234;-63
2022/02/26 11:20:58;;;;;;;12.00;2.90;;;8.20;93.10;;;;;;5104238;28;20208;-62
2022/02/26 11:23:26;;;;;;;5.73;2.20;;;8.30;93.20;;;;;;5092596;28;20208;-64
2022/02/26 11:25:53;;;;;;;6.90;2.93;;;8.50;93.10;;;;;;5093383;28;20228;-65
2022/02/26 11:28:21;;;;;;;7.37;2.30;;;8.80;92.30;;;;;;5092784;28;20230;-62
2022/02/26 11:30:55;;;;;;;8.50;2.13;;;9.20;91.70;;;;;;5091770;28;20203;-63
2022/02/26 11:33:22;;;;;;;7.03;2.03;;;9.70;91.40;;;;;;5092380;28;20252;-61
2022/02/26 11:35:53;;;;;;;7.93;2.47;;;10.30;90.20;;;;;;5098564;28;20223;-63
2022/02/26 11:38:22;;;;;;;8.53;2.33;;;10.70;88.40;;;;;;5104667;28;20203;-63
2022/02/26 11:40:50;;;;;;;9.13;3.53;;;11.10;85.80;;;;;;5110972;28;20234;-63
2022/02/26 11:43:38;;;;;;;6.50;2.23;;;11.60;84.90;;;;;;5112036;28;20258;-64
2022/02/26 11:46:18;;;;;;;6.27;2.27;;;12.00;83.50;;;;;;5112942;28;20238;-63
2022/02/26 11:48:45;;;;;;;8.67;2.60;;;12.20;81.50;;;;;;5114524;28;20216;-66
2022/02/26 11:51:14;;;;;;;6.57;2.30;;;12.10;82.40;;;;;;5112050;28;20238;-64
2022/02/26 11:53:42;;;;;;;6.30;2.20;;;12.00;81.90;;;;;;5112242;28;20695;-62
2022/02/26 11:56:09;;;;;;;9.43;2.27;;;12.00;82.10;;;;;;5112035;28;20287;-63
2022/02/26 11:58:38;;;;;;;5.83;2.57;;;12.00;82.00;;;;;;5112612;28;20204;-60
2022/02/26 12:01:06;;;;;;;6.47;1.97;;;11.90;81.90;;;;;;5111745;28;20202;-63
2022/02/26 12:03:35;;;;;;;7.30;1.83;;;11.70;81.10;;;;;;5112069;28;20208;-63
2022/02/26 12:06:28;;;;;;;12.20;3.30;;;11.50;81.80;;;;;;5112101;28;20228;-63
2022/02/26 12:08:58;;;;;;;6.47;2.00;;;11.20;82.60;;;;;;5115754;28;20214;-65
2022/02/26 12:11:33;;;;;;;7.90;2.13;;;11.00;83.00;;;;;;5115538;28;20204;-63
2022/02/26 12:14:03;;;;;;;9.63;2.50;;;11.00;83.20;;;;;;5115819;28;20209;-65
2022/02/26 12:16:35;;;;;;;6.30;2.53;;;10.90;84.50;;;;;;5115643;28;20235;-64
2022/02/26 12:19:04;;;;;;;7.40;2.47;;;10.50;85.00;;;;;;5116065;28;20192;-63
2022/02/26 12:21:34;;;;;;;8.37;2.70;;;10.10;85.90;;;;;;5116041;28;20599;-63
2022/02/26 12:24:15;;;;;;;9.10;2.20;;;9.80;87.60;;;;;;5116228;28;20566;-62
2022/02/26 12:26:47;;;;;;;7.37;1.80;;;9.70;88.10;;;;;;5115699;28;20241;-64
2022/02/26 12:29:46;;;;;;;5.70;1.67;;;9.90;88.10;;;;;;5115459;28;20237;-65
2022/02/26 12:32:17;;;;;;;9.13;1.90;;;10.00;85.80;;;;;;5114084;28;20207;-63
2022/02/26 12:34:53;;;;;;;6.13;1.80;;;9.90;84.80;;;;;;5115927;28;20203;-67
2022/02/26 12:37:21;;;;;;;7.03;2.30;;;10.00;85.70;;;;;;5117275;28;20472;-65
2022/02/26 12:39:51;;;;;;;6.00;1.87;;;10.30;87.50;;;;;;5115847;28;20227;-65
2022/02/26 12:42:20;;;;;;;9.27;1.97;;;10.50;87.20;;;;;;5115785;28;20213;-64
2022/02/26 12:44:49;;;;;;;5.97;1.90;;;10.70;85.90;;;;;;5116791;28;20199;-67
2022/02/26 12:47:17;;;;;;;6.53;1.90;;;10.90;85.10;;;;;;5115714;28;20219;-65
2022/02/26 12:49:44;;;;;;;6.50;2.03;;;11.20;83.00;;;;;;5115776;28;20196;-63
2022/02/26 12:52:12;;;;;;;6.83;1.90;;;11.40;82.90;;;;;;5115403;28;20215;-64
2022/02/26 12:54:40;;;;;;;6.80;1.87;;;11.40;83.20;;;;;;5115416;28;20299;-64
2022/02/26 12:57:07;;;;;;;6.27;1.67;;;11.40;81.60;;;;;;5115570;28;20230;-64